Time;durP1;ratioP1;P1;durP2;ratioP2;P2;SDS_P1;SDS_P2;PMS_P1;PMS_P2;Temp;Humidity;BMP_temperature;BMP_pressure;BME280_temperature;BME280_humidity;BME280_pressure;Samples;Min_cycle;Max_cycle;Signal;HPM_P1;HPM_P2
2022/05/29 00:00:50;;;;;;;4.60;1.30;;;;;;;8.81;69.34;98426.66;5092512;28;20192;-51
2022/05/29 00:03:18;;;;;;;6.03;1.00;;;;;;;8.75;69.20;98429.84;5092429;28;20228;-51
2022/05/29 00:05:47;;;;;;;4.43;1.00;;;;;;;8.71;68.57;98424.13;5092689;28;20198;-52
2022/05/29 00:08:21;;;;;;;1.87;1.10;;;;;;;8.75;68.73;98417.66;5093695;28;20206;-51
2022/05/29 00:10:48;;;;;;;6.97;1.17;;;;;;;8.82;67.69;98413.50;5093294;28;20190;-51
2022/05/29 00:13:17;;;;;;;2.47;1.00;;;;;;;8.86;66.52;98411.44;5092095;28;20201;-51
2022/05/29 00:15:44;;;;;;;2.27;1.10;;;;;;;8.92;66.71;98402.25;5093387;28;20661;-52
2022/05/29 00:18:13;;;;;;;4.47;1.50;;;;;;;8.95;67.17;98409.75;5093555;28;20234;-51
2022/05/29 00:20:41;;;;;;;7.60;2.00;;;;;;;8.96;67.83;98404.38;5093757;28;20214;-52
2022/05/29 00:23:09;;;;;;;6.57;1.27;;;;;;;8.95;67.70;98410.56;5093448;28;20271;-51
2022/05/29 00:25:36;;;;;;;4.68;1.25;;;;;;;9.13;67.32;98404.56;5092071;28;20452;-52
2022/05/29 00:28:04;;;;;;;3.43;1.20;;;;;;;9.13;67.94;98405.38;5091800;28;20219;-52
2022/05/29 00:30:33;;;;;;;4.57;1.20;;;;;;;9.19;67.81;98398.78;5093866;28;20243;-53
2022/05/29 00:33:00;;;;;;;2.77;1.10;;;;;;;9.26;67.48;98398.97;5093162;28;20234;-51
2022/05/29 00:35:28;;;;;;;2.03;1.00;;;;;;;9.25;66.24;98394.75;5093507;28;20178;-51
2022/05/29 00:37:55;;;;;;;2.57;1.10;;;;;;;9.29;65.21;98404.72;5093632;28;20219;-52
2022/05/29 00:40:37;;;;;;;3.17;1.13;;;;;;;9.47;64.71;98403.09;5097400;28;20459;-51
2022/05/29 00:43:05;;;;;;;7.70;1.40;;;;;;;9.64;64.05;98393.63;5096831;28;20273;-52
2022/05/29 00:45:45;;;;;;;4.30;1.30;;;;;;;9.80;60.78;98392.94;5096819;28;20197;-51
2022/05/29 00:48:15;;;;;;;5.13;1.43;;;;;;;9.89;61.01;98386.81;5096372;28;20216;-51
2022/05/29 00:50:43;;;;;;;4.20;1.27;;;;;;;9.98;59.45;98383.31;5096522;28;20322;-52
2022/05/29 00:53:10;;;;;;;2.00;1.10;;;;;;;10.22;57.99;98373.16;5096733;28;20193;-51
2022/05/29 00:55:38;;;;;;;3.60;1.20;;;;;;;10.36;57.66;98371.75;5095221;28;20190;-51
2022/05/29 00:58:06;;;;;;;5.63;1.10;;;;;;;10.40;57.51;98376.56;5095057;28;20215;-51
2022/05/29 01:00:35;;;;;;;4.73;1.20;;;;;;;10.46;57.70;98372.50;5097085;28;20192;-53
2022/05/29 01:03:03;;;;;;;7.13;1.27;;;;;;;10.47;58.08;98371.50;5096468;28;20246;-51
2022/05/29 01:05:33;;;;;;;2.53;1.23;;;;;;;10.47;58.37;98361.91;5096886;28;20605;-52
2022/05/29 01:08:11;;;;;;;3.67;1.47;;;;;;;10.47;58.40;98364.50;5096179;28;20197;-51
2022/05/29 01:10:53;;;;;;;5.97;1.27;;;;;;;10.45;58.29;98355.19;5096565;28;20239;-53
2022/05/29 01:13:30;;;;;;;8.27;1.50;;;;;;;10.45;58.79;98350.81;5096580;28;20532;-52
2022/05/29 01:16:05;;;;;;;7.10;1.27;;;;;;;10.45;58.26;98347.38;5096583;28;20273;-51
2022/05/29 01:18:43;;;;;;;6.53;1.37;;;;;;;10.46;57.89;98352.44;5096236;28;20202;-51
2022/05/29 01:21:50;;;;;;;3.17;1.10;;;;;;;10.42;58.07;98351.13;5099463;28;20193;-54
2022/05/29 01:24:40;;;;;;;5.37;1.53;;;;;;;10.39;56.88;98353.19;5099697;28;20196;-53
2022/05/29 01:27:40;;;;;;;7.37;1.17;;;;;;;10.41;57.78;98349.50;5099355;28;20696;-54
2022/05/29 01:30:13;;;;;;;3.63;1.20;;;;;;;10.38;59.82;98351.53;5097127;28;20189;-51
2022/05/29 01:32:50;;;;;;;9.40;1.53;;;;;;;10.31;59.76;98349.56;5096596;28;20189;-51
2022/05/29 01:35:23;;;;;;;5.70;1.33;;;;;;;10.30;59.09;98345.31;5096595;28;20221;-51
2022/05/29 01:38:12;;;;;;;3.03;1.20;;;;;;;10.40;58.10;98337.41;5096683;28;20213;-52
2022/05/29 01:40:43;;;;;;;4.93;1.20;;;;;;;10.41;58.66;98339.06;5095260;28;20191;-51
2022/05/29 01:43:19;;;;;;;6.60;1.40;;;;;;;10.58;55.40;98334.69;5095798;28;20189;-51
2022/05/29 01:45:54;;;;;;;7.20;1.27;;;;;;;10.84;54.13;98338.19;5095963;28;20193;-53
2022/05/29 01:48:30;;;;;;;5.77;1.40;;;;;;;10.85;55.27;98334.59;5095670;28;20566;-51
2022/05/29 01:51:02;;;;;;;4.20;1.47;;;;;;;10.85;54.60;98334.59;5096043;28;20196;-53
2022/05/29 01:53:34;;;;;;;6.43;1.50;;;;;;;11.03;52.41;98337.09;5095893;28;20206;-51
2022/05/29 01:56:11;;;;;;;4.87;1.57;;;;;;;11.15;52.83;98338.41;5095494;28;20250;-51
2022/05/29 01:58:43;;;;;;;5.30;1.43;;;;;;;11.23;52.42;98332.38;5095132;28;20292;-53
2022/05/29 02:01:13;;;;;;;4.47;1.33;;;;;;;11.19;53.97;98331.06;5095566;28;20197;-51
2022/05/29 02:03:45;;;;;;;4.40;1.60;;;;;;;11.17;52.85;98325.19;5095770;28;20202;-51
2022/05/29 02:07:47;;;;;;;5.07;1.70;;;;;;;11.08;54.95;98325.19;5096495;28;20213;-52
2022/05/29 02:09:27;;;;;;;3.60;1.30;;;;;;;11.02;53.12;98319.78;5095585;28;20257;-51
2022/05/29 02:11:59;;;;;;;4.67;1.50;;;;;;;10.97;55.26;98315.03;5095731;28;20211;-51
2022/05/29 02:14:32;;;;;;;7.77;2.23;;;;;;;10.90;53.74;98309.66;5094351;28;20670;-51
2022/05/29 02:17:05;;;;;;;4.03;1.37;;;;;;;10.88;55.29;98308.16;5095194;28;20262;-51
2022/05/29 02:19:35;;;;;;;7.60;1.70;;;;;;;10.86;55.56;98300.50;5095495;28;20212;-51
2022/05/29 02:22:06;;;;;;;5.23;1.97;;;;;;;10.86;55.46;98310.13;5095640;28;20197;-51
2022/05/29 02:24:37;;;;;;;5.05;1.13;;;;;;;10.85;55.98;98300.66;5094927;28;20940;-52
2022/05/29 02:27:10;;;;;;;16.57;1.70;;;;;;;10.89;55.05;98299.34;5094809;28;20199;-52
2022/05/29 02:29:37;;;;;;;6.03;1.80;;;;;;;10.96;54.44;98302.97;5095395;28;20190;-52
2022/05/29 02:32:15;;;;;;;4.23;1.30;;;;;;;10.93;56.94;98295.44;5095110;28;20644;-52
2022/05/29 02:34:50;;;;;;;4.57;1.63;;;;;;;10.88;56.49;98289.88;5095288;28;20258;-51
2022/05/29 02:37:24;;;;;;;3.23;1.30;;;;;;;10.90;54.76;98294.00;5095536;28;20848;-51
2022/05/29 02:40:00;;;;;;;3.53;1.40;;;;;;;10.88;56.46;98293.34;5095347;28;20273;-53
2022/05/29 02:42:31;;;;;;;7.17;1.60;;;;;;;10.95;54.67;98285.66;5094039;28;20199;-51
2022/05/29 02:45:08;;;;;;;4.53;1.50;;;;;;;11.07;53.72;98292.22;5094921;28;20234;-52
2022/05/29 02:47:45;;;;;;;5.47;2.13;;;;;;;11.04;54.67;98292.53;5094761;28;20204;-51
2022/05/29 02:50:30;;;;;;;4.10;1.40;;;;;;;11.03;53.94;98285.66;5094622;28;20215;-53
2022/05/29 02:53:01;;;;;;;3.17;1.47;;;;;;;10.98;55.07;98284.53;5095339;28;20200;-52
2022/05/29 02:55:47;;;;;;;4.57;1.30;;;;;;;10.88;55.13;98285.50;5094960;28;20203;-53
2022/05/29 02:58:19;;;;;;;6.63;1.23;;;;;;;10.86;56.51;98266.56;5094757;28;20216;-51
2022/05/29 03:01:00;;;;;;;4.10;1.67;;;;;;;10.73;58.08;98267.03;5094455;28;20189;-51
2022/05/29 03:03:36;;;;;;;6.43;1.70;;;;;;;10.65;59.01;98264.41;5094569;28;20175;-51
2022/05/29 03:06:17;;;;;;;5.70;1.60;;;;;;;10.58;58.73;98259.00;5094477;28;20270;-52
2022/05/29 03:08:59;;;;;;;11.60;2.07;;;;;;;10.58;58.71;98255.59;5094232;28;20203;-51
2022/05/29 03:11:37;;;;;;;7.60;1.63;;;;;;;10.51;59.53;98250.19;5094251;28;20179;-52
2022/05/29 03:14:07;;;;;;;5.63;1.63;;;;;;;10.48;61.23;98246.13;5094321;28;20584;-51
2022/05/29 03:16:46;;;;;;;5.30;1.60;;;;;;;10.44;60.80;98243.97;5094277;28;20171;-52
2022/05/29 03:19:28;;;;;;;6.87;1.70;;;;;;;10.39;62.10;98249.69;5094340;28;20229;-52
2022/05/29 03:22:06;;;;;;;6.43;1.43;;;;;;;10.27;61.16;98243.88;5094246;28;20230;-51
2022/05/29 03:24:40;;;;;;;7.53;1.53;;;;;;;10.15;63.19;98245.97;5093908;28;20572;-51
2022/05/29 03:27:13;;;;;;;4.27;1.60;;;;;;;10.09;62.10;98251.81;5095824;28;20239;-52
2022/05/29 03:29:46;;;;;;;6.10;1.90;;;;;;;10.06;63.79;98246.91;5096203;28;20266;-53
2022/05/29 03:32:14;;;;;;;6.27;1.40;;;;;;;10.03;63.56;98240.25;5094362;28;20666;-52
2022/05/29 03:34:42;;;;;;;2.23;1.17;;;;;;;9.97;63.30;98235.66;5094104;28;20273;-52
2022/05/29 03:37:09;;;;;;;5.27;1.30;;;;;;;10.01;62.88;98236.13;5093649;28;20190;-52
2022/05/29 03:39:36;;;;;;;6.10;1.70;;;;;;;9.97;63.42;98237.44;5093712;28;20183;-51
2022/05/29 03:42:05;;;;;;;4.53;1.50;;;;;;;9.96;64.31;98226.19;5094258;28;20191;-51
2022/05/29 03:44:32;;;;;;;7.73;1.60;;;;;;;9.96;63.85;98226.19;5093436;28;20204;-52
2022/05/29 03:46:59;;;;;;;5.57;1.47;;;;;;;10.02;62.86;98225.56;5093529;28;20191;-51
2022/05/29 03:49:26;;;;;;;6.43;1.97;;;;;;;10.07;62.94;98224.28;5094107;28;20190;-51
2022/05/29 03:51:55;;;;;;;8.97;1.60;;;;;;;10.07;62.98;98213.84;5094269;28;20217;-53
2022/05/29 03:54:22;;;;;;;5.40;1.47;;;;;;;10.17;63.81;98227.53;5092730;28;20669;-51
2022/05/29 03:56:50;;;;;;;2.90;1.67;;;;;;;10.19;64.65;98225.59;5094084;28;20270;-51
2022/05/29 03:59:17;;;;;;;4.03;1.60;;;;;;;10.21;64.38;98228.06;5094196;28;20535;-51
2022/05/29 04:01:44;;;;;;;7.37;1.97;;;;;;;10.24;64.81;98228.56;5093185;28;20191;-51
2022/05/29 04:04:12;;;;;;;3.40;1.40;;;;;;;10.29;64.73;98238.53;5095778;28;20268;-53
2022/05/29 04:06:40;;;;;;;5.83;1.60;;;;;;;10.38;64.81;98245.41;5094739;28;20192;-54
2022/05/29 04:12:07;;;;;;;4.77;1.67;;;;;;;10.59;61.10;98260.66;5093316;28;20821;-54
2022/05/29 04:14:36;;;;;;;3.90;1.33;;;;;;;10.74;59.37;98258.22;5096624;28;20197;-54
2022/05/29 04:17:04;;;;;;;8.93;1.70;;;;;;;10.75;59.28;98267.69;5095824;28;20226;-54
2022/05/29 04:19:32;;;;;;;6.17;1.63;;;;;;;10.68;59.59;98271.09;5096031;28;20224;-54
2022/05/29 04:21:59;;;;;;;6.07;1.40;;;;;;;10.74;59.62;98273.88;5096747;28;20278;-53
2022/05/29 04:24:28;;;;;;;5.67;1.60;;;;;;;10.66;59.23;98270.44;5096808;28;20206;-54
2022/05/29 04:26:55;;;;;;;5.90;1.77;;;;;;;10.74;59.31;98280.91;5097695;28;20186;-53
2022/05/29 04:29:22;;;;;;;3.97;1.60;;;;;;;10.74;59.40;98280.91;5097771;28;20778;-53
2022/05/29 04:34:34;;;;;;;5.47;1.67;;;;;;;10.73;59.63;98287.09;5099027;28;20186;-51
2022/05/29 04:37:01;;;;;;;7.03;1.60;;;;;;;10.85;59.35;98295.44;5097374;28;20707;-52
2022/05/29 04:39:32;;;;;;;5.63;1.57;;;;;;;10.78;59.70;98296.06;5097484;28;20205;-51
2022/05/29 04:42:00;;;;;;;7.90;1.77;;;;;;;10.75;59.51;98292.97;5097435;28;20186;-52
2022/05/29 04:44:28;;;;;;;4.97;1.70;;;;;;;10.76;59.67;98292.81;5097094;28;20198;-51
2022/05/29 04:46:57;;;;;;;6.60;1.50;;;;;;;10.78;61.32;98290.84;5097552;28;20274;-51
2022/05/29 04:49:24;;;;;;;4.20;1.97;;;;;;;10.80;61.18;98295.94;5097384;28;20209;-52
2022/05/29 04:51:51;;;;;;;8.30;2.10;;;;;;;10.78;60.22;98290.06;5097271;28;20222;-52
2022/05/29 04:54:18;;;;;;;5.30;2.07;;;;;;;10.81;61.49;98288.91;5097184;28;20239;-52
2022/05/29 04:57:06;;;;;;;11.47;2.47;;;;;;;10.78;61.97;98298.69;5097412;28;20198;-51
2022/05/29 04:59:33;;;;;;;3.93;1.80;;;;;;;10.75;59.94;98299.00;5097193;28;20270;-52
2022/05/29 05:02:00;;;;;;;6.13;2.00;;;;;;;10.80;61.24;98295.09;5097255;28;20193;-52
2022/05/29 05:04:27;;;;;;;10.73;2.27;;;;;;;10.72;60.76;98296.72;5097053;28;20190;-52
2022/05/29 05:06:55;;;;;;;5.30;2.00;;;;;;;10.70;61.51;98295.25;5096914;28;20240;-51
2022/05/29 05:09:22;;;;;;;7.40;2.10;;;;;;;10.74;61.04;98301.78;5096530;28;20208;-52
2022/05/29 05:11:51;;;;;;;8.37;2.10;;;;;;;10.72;61.47;98295.91;5096934;28;20601;-51
2022/05/29 05:14:20;;;;;;;5.77;2.20;;;;;;;10.76;62.24;98303.25;5096886;28;20194;-51
2022/05/29 05:16:48;;;;;;;4.87;1.80;;;;;;;10.80;63.54;98308.16;5096894;28;20175;-52
2022/05/29 05:19:16;;;;;;;7.97;1.80;;;;;;;10.83;63.60;98303.44;5096233;28;20275;-51
2022/05/29 05:21:44;;;;;;;4.57;1.83;;;;;;;10.79;62.14;98296.91;5096869;28;20653;-51
2022/05/29 05:24:11;;;;;;;7.70;1.83;;;;;;;10.84;64.93;98293.81;5096266;28;20193;-51
2022/05/29 05:26:39;;;;;;;6.87;2.37;;;;;;;10.84;66.42;98292.03;5095489;28;20218;-51
2022/05/29 05:29:06;;;;;;;6.10;1.90;;;;;;;10.82;67.74;98295.75;5096406;28;20206;-51
2022/05/29 05:31:35;;;;;;;4.37;1.53;;;;;;;10.81;68.03;98300.19;5095221;28;20647;-51
2022/05/29 05:34:02;;;;;;;8.53;2.30;;;;;;;10.82;67.53;98295.75;5095945;28;20274;-51
2022/05/29 05:36:29;;;;;;;8.93;1.90;;;;;;;10.96;70.48;98302.16;5096295;28;20191;-51
2022/05/29 05:38:57;;;;;;;8.27;2.13;;;;;;;11.10;70.56;98304.13;5094840;28;20214;-51
2022/05/29 05:41:25;;;;;;;10.43;2.50;;;;;;;11.30;72.35;98303.78;5096820;28;20186;-52
2022/05/29 05:43:53;;;;;;;6.03;1.83;;;;;;;11.45;67.69;98301.38;5096279;28;20195;-51
2022/05/29 05:46:20;;;;;;;6.53;2.20;;;;;;;11.62;67.69;98304.75;5096077;28;20253;-52
2022/05/29 05:48:49;;;;;;;6.40;2.17;;;;;;;11.69;65.52;98308.34;5096107;28;20218;-51
2022/05/29 05:51:17;;;;;;;8.83;1.90;;;;;;;11.81;67.26;98314.88;5096510;28;20181;-52
2022/05/29 05:53:44;;;;;;;5.67;2.20;;;;;;;12.00;67.75;98312.06;5096375;28;20256;-53
2022/05/29 05:56:13;;;;;;;6.87;1.90;;;;;;;12.17;68.58;98316.28;5095788;28;20193;-51
2022/05/29 05:58:40;;;;;;;8.63;2.30;;;;;;;11.91;64.92;98317.28;5095741;28;20665;-53
2022/05/29 06:01:10;;;;;;;5.70;2.43;;;;;;;12.23;67.81;98320.84;5094466;28;20199;-51
2022/05/29 06:03:38;;;;;;;6.90;1.90;;;;;;;12.57;62.67;98312.84;5095661;28;20187;-51
2022/05/29 06:06:07;;;;;;;5.40;1.90;;;;;;;12.66;64.43;98314.44;5095716;28;20616;-51
2022/05/29 06:08:52;;;;;;;4.40;1.90;;;;;;;12.46;62.08;98319.25;5096233;28;20222;-54
2022/05/29 06:11:20;;;;;;;8.67;2.27;;;;;;;12.37;64.33;98335.00;5095407;28;20195;-51
2022/05/29 06:13:47;;;;;;;7.10;2.03;;;;;;;12.32;62.52;98328.66;5096198;28;20200;-51
2022/05/29 06:16:14;;;;;;;6.80;2.20;;;;;;;11.86;63.80;98335.28;5097924;28;20207;-52
2022/05/29 06:18:41;;;;;;;8.40;2.67;;;;;;;11.64;64.10;98329.78;5096044;28;20749;-52
2022/05/29 06:21:10;;;;;;;6.33;2.13;;;;;;;11.42;64.95;98325.22;5095283;28;20194;-51
2022/05/29 06:23:39;;;;;;;11.83;2.40;;;;;;;11.55;66.46;98330.75;5095607;28;20266;-52
2022/05/29 06:26:08;;;;;;;9.20;2.40;;;;;;;11.33;65.02;98334.81;5095204;28;20206;-52
2022/05/29 06:28:36;;;;;;;8.27;2.53;;;;;;;11.46;66.17;98347.41;5095387;28;20578;-51
2022/05/29 06:31:04;;;;;;;7.70;2.40;;;;;;;11.47;64.68;98346.44;5095323;28;20615;-52
2022/05/29 06:33:31;;;;;;;7.97;3.03;;;;;;;11.26;64.75;98345.13;5093949;28;20226;-51
2022/05/29 06:36:07;;;;;;;8.13;2.53;;;;;;;11.02;66.41;98340.69;5093078;28;20196;-53
2022/05/29 06:38:35;;;;;;;7.57;2.50;;;;;;;11.18;65.25;98340.69;5094407;28;20213;-51
2022/05/29 06:41:05;;;;;;;6.40;3.13;;;;;;;10.85;67.13;98345.88;5095394;28;20187;-51
2022/05/29 06:43:33;;;;;;;14.17;2.80;;;;;;;11.08;66.34;98343.47;5095030;28;20193;-51
2022/05/29 06:46:01;;;;;;;10.97;3.07;;;;;;;11.02;67.28;98343.31;5094335;28;20577;-52
2022/05/29 06:48:31;;;;;;;6.30;2.30;;;;;;;11.27;65.42;98338.09;5093768;28;20202;-52
2022/05/29 06:51:22;;;;;;;11.50;2.63;;;;;;;11.25;65.74;98338.25;5094817;28;20189;-53
2022/05/29 06:53:52;;;;;;;11.93;2.43;;;;;;;11.41;65.03;98349.72;5089655;28;20301;-51
2022/05/29 06:56:20;;;;;;;5.87;2.40;;;;;;;11.36;64.71;98350.19;5095009;28;20271;-52
2022/05/29 06:58:48;;;;;;;7.73;2.33;;;;;;;11.41;65.16;98357.56;5094033;28;20296;-51
2022/05/29 07:07:00;;;;;;;6.27;2.10;;;;;;;11.41;66.36;98354.94;5094238;28;20206;-53
2022/05/29 07:09:44;;;;;;;9.83;2.60;;;;;;;11.54;65.12;98370.13;5092721;28;20718;-52
2022/05/29 07:12:13;;;;;;;6.07;1.90;;;;;;;11.47;63.24;98364.75;5094351;28;20186;-51
2022/05/29 07:14:44;;;;;;;10.87;2.07;;;;;;;11.33;62.27;98374.03;5094136;28;20610;-51
2022/05/29 07:17:12;;;;;;;5.97;1.60;;;;;;;11.19;62.02;98365.03;5095298;28;20224;-51
2022/05/29 07:19:40;;;;;;;6.50;2.00;;;;;;;10.85;63.73;98361.53;5093592;28;20210;-51
2022/05/29 07:22:08;;;;;;;8.00;2.00;;;;;;;10.77;63.89;98369.34;5094752;28;20193;-51
2022/05/29 07:24:38;;;;;;;9.70;1.80;;;;;;;10.78;62.83;98366.56;5094399;28;20197;-52
2022/05/29 07:27:08;;;;;;;6.13;1.90;;;;;;;10.57;63.03;98367.00;5094776;28;20578;-51
2022/05/29 07:29:36;;;;;;;3.33;1.50;;;;;;;10.44;63.17;98372.66;5095238;28;20246;-51
2022/05/29 07:32:04;;;;;;;5.17;1.60;;;;;;;10.47;65.59;98371.50;5095220;28;20660;-52
2022/05/29 07:34:32;;;;;;;10.13;1.90;;;;;;;10.34;65.59;98371.91;5094266;28;20189;-51
2022/05/29 07:37:06;;;;;;;4.33;1.60;;;;;;;10.23;66.23;98380.00;5094323;28;20203;-52
2022/05/29 07:39:38;;;;;;;7.37;1.30;;;;;;;10.46;65.41;98375.09;5094405;28;20189;-52
2022/05/29 07:44:55;;;;;;;3.83;1.47;;;;;;;10.61;65.02;98375.31;5095052;28;20201;-52
2022/05/29 07:47:27;;;;;;;3.33;1.40;;;;;;;10.59;67.48;98374.69;5094322;28;20228;-51
2022/05/29 07:49:56;;;;;;;2.13;1.17;;;;;;;10.62;68.83;98367.34;5097103;28;20198;-51
2022/05/29 07:52:42;;;;;;;11.23;3.53;;;;;;;10.56;68.41;98365.34;5098738;28;20281;-54
2022/05/29 07:55:11;;;;;;;29.83;11.97;;;;;;;10.61;68.03;98370.91;5097050;28;20226;-51
2022/05/29 07:57:38;;;;;;;6.60;2.50;;;;;;;10.62;65.01;98369.94;5097423;28;20302;-51
2022/05/29 08:00:08;;;;;;;3.53;1.30;;;;;;;10.65;68.14;98353.13;5098260;28;20610;-51
2022/05/29 08:02:38;;;;;;;2.83;1.80;;;;;;;10.81;66.06;98356.78;5098143;28;20190;-52
2022/05/29 08:05:08;;;;;;;2.47;1.00;;;;;;;10.74;66.21;98352.19;5098120;28;20221;-52
2022/05/29 08:07:35;;;;;;;5.00;0.83;;;;;;;10.78;65.27;98355.31;5098934;28;20209;-54
2022/05/29 08:10:04;;;;;;;2.47;1.00;;;;;;;10.73;65.42;98344.53;5099602;28;20206;-52
2022/05/29 08:12:33;;;;;;;2.30;1.00;;;;;;;10.87;65.63;98351.75;5098829;28;20187;-52
2022/05/29 08:15:00;;;;;;;1.40;1.00;;;;;;;10.86;65.88;98344.91;5099401;28;20246;-54
2022/05/29 08:17:27;;;;;;;4.13;1.20;;;;;;;10.84;65.85;98346.03;5098245;28;20772;-51
2022/05/29 08:20:15;;;;;;;3.87;0.83;;;;;;;10.77;66.54;98341.44;5097614;28;20256;-51
2022/05/29 08:22:43;;;;;;;2.37;1.20;;;;;;;10.82;65.88;98347.97;5097168;28;20230;-51
2022/05/29 08:30:46;;;;;;;5.27;1.00;;;;;;;11.03;65.23;98350.97;5098292;28;20182;-54
2022/05/29 08:33:15;;;;;;;4.63;1.17;;;;;;;11.24;67.10;98347.09;5096984;28;20183;-51
2022/05/29 08:35:45;;;;;;;2.33;0.97;;;;;;;11.22;69.00;98351.66;5097619;28;20178;-52
2022/05/29 08:38:15;;;;;;;4.30;1.07;;;;;;;11.31;70.68;98353.28;5096962;28;20215;-51
2022/05/29 08:40:45;;;;;;;3.07;1.20;;;;;;;11.57;74.30;98348.88;5096987;28;20287;-52
2022/05/29 08:43:23;;;;;;;1.70;0.83;;;;;;;11.93;71.42;98356.38;5097006;28;20193;-53
2022/05/29 08:45:53;;;;;;;1.80;0.80;;;;;;;12.09;67.56;98356.38;5097258;28;20320;-52
2022/05/29 08:48:24;;;;;;;2.63;0.90;;;;;;;11.95;67.96;98363.06;5097134;28;20214;-51
2022/05/29 08:51:02;;;;;;;3.33;1.20;;;;;;;12.10;66.51;98368.47;5097977;28;20221;-51
2022/05/29 08:53:36;;;;;;;1.80;1.10;;;;;;;11.34;65.88;98368.66;5098003;28;20190;-51
2022/05/29 08:56:16;;;;;;;3.07;1.10;;;;;;;11.07;67.76;98362.72;5097647;28;20248;-53
2022/05/29 08:59:00;;;;;;;3.40;0.87;;;;;;;11.05;67.25;98361.25;5096567;28;20548;-53
2022/05/29 09:01:36;;;;;;;3.93;1.10;;;;;;;11.16;69.66;98362.75;5097411;28;20208;-53
2022/05/29 09:04:09;;;;;;;3.40;1.43;;;;;;;11.16;70.02;98357.53;5097641;28;20191;-51
2022/05/29 09:06:41;;;;;;;2.10;1.07;;;;;;;11.18;71.06;98355.56;5096852;28;20208;-51
2022/05/29 09:09:18;;;;;;;3.30;1.57;;;;;;;11.20;72.88;98358.84;5097067;28;20210;-52
2022/05/29 09:11:48;;;;;;;2.90;1.17;;;;;;;11.46;73.36;98352.66;5097544;28;20257;-51
2022/05/29 09:14:23;;;;;;;3.80;1.60;;;;;;;11.73;66.76;98343.66;5096928;28;20358;-51
2022/05/29 09:16:56;;;;;;;3.20;1.40;;;;;;;12.07;65.11;98344.44;5097567;28;20182;-53
2022/05/29 09:19:34;;;;;;;5.03;1.00;;;;;;;12.32;62.10;98344.34;5097564;28;20245;-53
2022/05/29 09:22:05;;;;;;;2.33;1.03;;;;;;;12.53;56.43;98339.38;5096986;28;20611;-52
2022/05/29 09:24:51;;;;;;;4.63;0.83;;;;;;;12.88;54.22;98335.56;5096760;28;20499;-51
2022/05/29 09:27:18;;;;;;;1.77;0.80;;;;;;;12.68;50.38;98342.06;5096814;28;20234;-51
2022/05/29 09:29:47;;;;;;;2.40;0.90;;;;;;;12.59;52.77;98347.53;5096239;28;20534;-53
2022/05/29 09:32:18;;;;;;;1.90;0.63;;;;;;;12.31;54.83;98343.53;5096921;28;20556;-51
2022/05/29 09:34:58;;;;;;;3.40;0.80;;;;;;;12.50;58.45;98346.75;5096627;28;20233;-51
2022/05/29 09:37:42;;;;;;;2.00;0.60;;;;;;;12.62;55.49;98339.34;5094225;28;20204;-51
2022/05/29 09:40:16;;;;;;;3.30;0.80;;;;;;;12.31;52.63;98337.50;5096707;28;20185;-51
2022/05/29 09:42:44;;;;;;;1.37;0.60;;;;;;;12.59;54.54;98342.28;5095079;28;20200;-51
2022/05/29 09:45:16;;;;;;;3.07;0.97;;;;;;;12.91;53.64;98343.09;5097130;28;20725;-51
2022/05/29 09:50:50;;;;;;;1.87;0.90;;;;;;;12.54;51.53;98348.84;5096944;28;20168;-51
2022/05/29 09:53:20;;;;;;;1.93;0.70;;;;;;;12.54;53.22;98350.66;5096664;28;20275;-52
2022/05/29 09:55:51;;;;;;;3.93;0.83;;;;;;;12.32;51.82;98339.94;5095908;28;20196;-52
2022/05/29 09:58:24;;;;;;;3.97;1.13;;;;;;;12.30;50.83;98341.91;5096627;28;20255;-51
2022/05/29 10:01:01;;;;;;;1.37;0.70;;;;;;;12.40;52.08;98339.91;5095938;28;20491;-51
2022/05/29 10:03:44;;;;;;;0.80;0.70;;;;;;;12.70;48.44;98342.72;5095932;28;20206;-51
2022/05/29 10:06:18;;;;;;;2.63;0.80;;;;;;;12.91;48.82;98337.84;5092898;28;20215;-52
2022/05/29 10:08:46;;;;;;;1.57;0.90;;;;;;;13.06;50.30;98340.56;5096217;28;20247;-51
2022/05/29 10:11:18;;;;;;;2.53;0.83;;;;;;;13.28;50.65;98337.09;5096569;28;20188;-51
2022/05/29 10:13:46;;;;;;;5.33;0.90;;;;;;;13.02;50.42;98340.06;5095209;28;20206;-51
2022/05/29 10:16:30;;;;;;;5.03;1.10;;;;;;;13.28;50.66;98334.47;5096348;28;20188;-52
2022/05/29 10:18:58;;;;;;;4.47;1.07;;;;;;;13.62;51.76;98326.38;5096369;28;20261;-51
2022/05/29 10:21:28;;;;;;;3.43;0.90;;;;;;;14.07;50.07;98324.63;5095232;28;20636;-51
2022/05/29 10:24:10;;;;;;;2.23;0.80;;;;;;;14.44;49.17;98328.13;5096783;28;20538;-52
2022/05/29 10:26:38;;;;;;;2.70;1.00;;;;;;;14.20;48.92;98312.69;5096241;28;20276;-53
2022/05/29 10:29:15;;;;;;;1.50;0.90;;;;;;;14.69;49.68;98316.50;5093901;28;20214;-51
2022/05/29 10:31:48;;;;;;;2.43;1.00;;;;;;;14.86;49.05;98315.28;5095355;28;20555;-51
2022/05/29 10:34:24;;;;;;;7.03;1.43;;;;;;;15.12;49.74;98313.94;5095124;28;20528;-52
2022/05/29 10:36:52;;;;;;;2.33;1.00;;;;;;;15.10;48.97;98309.88;5094277;28;20192;-51
2022/05/29 10:39:22;;;;;;;3.67;1.43;;;;;;;14.59;50.66;98314.16;5094888;28;20205;-53
2022/05/29 10:41:49;;;;;;;4.70;1.30;;;;;;;14.23;51.14;98314.97;5095339;28;20551;-51
2022/05/29 10:44:37;;;;;;;3.53;1.60;;;;;;;13.96;52.53;98318.00;5094254;28;20534;-51
2022/05/29 10:47:10;;;;;;;6.67;1.70;;;;;;;14.59;51.67;98317.63;5095584;28;20208;-54
2022/05/29 10:49:39;;;;;;;4.20;1.83;;;;;;;15.24;48.35;98316.91;5094168;28;20743;-51
2022/05/29 10:52:25;;;;;;;6.20;1.90;;;;;;;14.97;51.62;98308.75;5094069;28;20276;-51
2022/05/29 10:55:10;;;;;;;4.03;1.50;;;;;;;15.09;50.81;98311.69;5095486;28;20191;-50
2022/05/29 10:57:56;;;;;;;7.03;2.13;;;;;;;14.78;51.58;98307.56;5094759;28;20283;-53
2022/05/29 11:00:37;;;;;;;4.50;1.80;;;;;;;14.71;51.81;98306.66;5095377;28;20179;-52
2022/05/29 11:03:40;;;;;;;2.60;1.50;;;;;;;14.28;52.03;98302.09;5094611;28;20638;-52
2022/05/29 11:06:34;;;;;;;8.40;2.30;;;;;;;14.59;51.72;98304.47;5093179;28;20298;-54
2022/05/29 11:09:13;;;;;;;6.67;2.07;;;;;;;15.06;52.70;98291.03;5093628;28;20305;-51
2022/05/29 11:11:55;;;;;;;5.13;1.70;;;;;;;15.50;48.75;98294.41;5094584;28;20254;-51
2022/05/29 11:14:45;;;;;;;7.97;2.00;;;;;;;14.72;50.81;98292.53;5094437;28;20723;-52
2022/05/29 11:17:21;;;;;;;5.43;2.53;;;;;;;14.00;52.96;98285.16;5093229;28;20206;-51
2022/05/29 11:20:19;;;;;;;3.30;1.33;;;;;;;14.38;51.39;98292.09;5094278;28;20228;-51
2022/05/29 11:23:01;;;;;;;4.60;1.60;;;;;;;14.10;49.66;98289.34;5093890;28;20186;-52
2022/05/29 11:25:41;;;;;;;2.23;1.23;;;;;;;14.99;48.76;98287.53;5094446;28;20190;-51
2022/05/29 11:28:28;;;;;;;4.23;1.73;;;;;;;15.48;47.83;98278.03;5093554;28;20213;-51
2022/05/29 11:31:06;;;;;;;6.20;1.60;;;;;;;15.32;48.32;98279.94;5094288;28;20194;-51
2022/05/29 11:33:53;;;;;;;4.73;1.70;;;;;;;14.89;47.82;98280.75;5094083;28;20549;-53
2022/05/29 11:36:37;;;;;;;3.43;1.23;;;;;;;14.19;48.73;98267.25;5094436;28;20196;-51
2022/05/29 11:39:24;;;;;;;5.27;1.43;;;;;;;14.44;46.95;98272.97;5093910;28;20224;-51
2022/05/29 11:41:56;;;;;;;5.77;1.50;;;;;;;14.59;48.96;98261.63;5094118;28;20184;-51
2022/05/29 11:44:29;;;;;;;3.30;1.20;;;;;;;15.44;46.87;98272.34;5093650;28;20181;-52
2022/05/29 11:52:49;;;;;;;4.67;1.50;;;;;;;14.27;49.31;98254.00;5095060;28;20551;-53
2022/05/29 11:55:18;;;;;;;3.33;1.20;;;;;;;14.56;48.44;98256.75;5093641;28;20214;-52
2022/05/29 11:57:50;;;;;;;4.03;1.63;;;;;;;15.03;47.46;98255.44;5093710;28;20289;-54
2022/05/29 12:00:32;;;;;;;3.97;1.13;;;;;;;15.20;46.35;98247.28;5094432;28;20198;-53
2022/05/29 12:03:11;;;;;;;3.33;1.07;;;;;;;16.22;44.30;98246.88;5094062;28;20265;-54
2022/05/29 12:05:44;;;;;;;4.73;1.30;;;;;;;16.58;44.18;98244.97;5093543;28;20195;-52
2022/05/29 12:08:19;;;;;;;3.20;1.10;;;;;;;16.41;46.11;98242.72;5093424;28;20220;-53
2022/05/29 12:11:13;;;;;;;4.87;1.23;;;;;;;15.70;45.50;98244.59;5093909;28;20592;-51
2022/05/29 12:13:50;;;;;;;4.43;1.40;;;;;;;15.18;45.30;98244.84;5093787;28;20565;-53
2022/05/29 12:16:25;;;;;;;2.97;1.00;;;;;;;15.58;44.09;98246.13;5093221;28;20710;-51
2022/05/29 12:18:55;;;;;;;2.43;1.07;;;;;;;15.81;44.07;98245.84;5092907;28;20565;-51
2022/05/29 12:21:31;;;;;;;3.90;1.20;;;;;;;16.38;42.06;98246.53;5093112;28;20189;-52
2022/05/29 12:24:02;;;;;;;3.10;1.30;;;;;;;16.87;42.72;98246.47;5092995;28;20178;-52
2022/05/29 12:26:39;;;;;;;3.57;1.10;;;;;;;17.01;40.52;98235.94;5092976;28;20187;-51
2022/05/29 12:29:12;;;;;;;3.93;1.10;;;;;;;16.91;40.18;98246.84;5093102;28;20199;-51